sensor_id;sensor_type;location;lat;lon;timestamp;P1;durP1;ratioP1;P2;durP2;ratioP2
30020;SDS011;16861;52.294;7.760;2022-11-15T00:00:54;14.13;;;9.90;;
30020;SDS011;16861;52.294;7.760;2022-11-15T00:03:22;12.98;;;10.05;;
30020;SDS011;16861;52.294;7.760;2022-11-15T00:05:50;15.27;;;9.98;;
30020;SDS011;16861;52.294;7.760;2022-11-15T00:08:16;14.75;;;10.05;;
30020;SDS011;16861;52.294;7.760;2022-11-15T00:10:53;17.58;;;10.35;;
30020;SDS011;16861;52.294;7.760;2022-11-15T00:13:20;14.57;;;10.30;;
30020;SDS011;16861;52.294;7.760;2022-11-15T00:15:47;13.93;;;9.82;;
30020;SDS011;16861;52.294;7.760;2022-11-15T00:18:13;11.52;;;9.20;;
30020;SDS011;16861;52.294;7.760;2022-11-15T00:20:41;13.73;;;9.13;;
30020;SDS011;16861;52.294;7.760;2022-11-15T00:23:07;14.55;;;9.10;;
30020;SDS011;16861;52.294;7.760;2022-11-15T00:25:34;11.98;;;9.27;;
30020;SDS011;16861;52.294;7.760;2022-11-15T00:28:01;12.30;;;8.82;;
30020;SDS011;16861;52.294;7.760;2022-11-15T00:30:28;12.82;;;9.02;;
30020;SDS011;16861;52.294;7.760;2022-11-15T00:32:56;11.68;;;9.02;;
30020;SDS011;16861;52.294;7.760;2022-11-15T00:35:22;13.50;;;9.32;;
30020;SDS011;16861;52.294;7.760;2022-11-15T00:37:49;14.52;;;9.55;;
30020;SDS011;16861;52.294;7.760;2022-11-15T00:40:15;14.10;;;10.10;;
30020;SDS011;16861;52.294;7.760;2022-11-15T00:42:42;16.70;;;10.75;;
30020;SDS011;16861;52.294;7.760;2022-11-15T00:45:09;17.30;;;10.90;;
30020;SDS011;16861;52.294;7.760;2022-11-15T00:47:35;17.73;;;10.50;;
30020;SDS011;16861;52.294;7.760;2022-11-15T00:50:02;16.50;;;8.95;;
30020;SDS011;16861;52.294;7.760;2022-11-15T00:52:29;17.63;;;10.43;;
30020;SDS011;16861;52.294;7.760;2022-11-15T00:54:55;15.85;;;10.18;;
30020;SDS011;16861;52.294;7.760;2022-11-15T00:57:22;15.15;;;10.38;;
30020;SDS011;16861;52.294;7.760;2022-11-15T00:59:48;15.43;;;9.52;;
30020;SDS011;16861;52.294;7.760;2022-11-15T01:02:15;16.98;;;10.35;;
30020;SDS011;16861;52.294;7.760;2022-11-15T01:04:41;14.38;;;9.70;;
30020;SDS011;16861;52.294;7.760;2022-11-15T01:07:08;13.60;;;9.60;;
30020;SDS011;16861;52.294;7.760;2022-11-15T01:09:34;16.02;;;10.40;;
30020;SDS011;16861;52.294;7.760;2022-11-15T01:12:01;13.00;;;9.60;;
30020;SDS011;16861;52.294;7.760;2022-11-15T01:14:27;12.55;;;8.82;;
30020;SDS011;16861;52.294;7.760;2022-11-15T01:16:54;14.98;;;9.00;;
30020;SDS011;16861;52.294;7.760;2022-11-15T01:19:20;12.65;;;9.05;;
30020;SDS011;16861;52.294;7.760;2022-11-15T01:21:50;13.75;;;7.82;;
30020;SDS011;16861;52.294;7.760;2022-11-15T01:24:17;13.15;;;8.48;;
30020;SDS011;16861;52.294;7.760;2022-11-15T01:26:44;11.80;;;8.75;;
30020;SDS011;16861;52.294;7.760;2022-11-15T01:29:10;11.45;;;8.18;;
30020;SDS011;16861;52.294;7.760;2022-11-15T01:31:37;12.23;;;8.45;;
30020;SDS011;16861;52.294;7.760;2022-11-15T01:34:04;11.00;;;8.35;;
30020;SDS011;16861;52.294;7.760;2022-11-15T01:36:30;10.75;;;7.65;;
30020;SDS011;16861;52.294;7.760;2022-11-15T01:38:59;10.40;;;8.00;;
30020;SDS011;16861;52.294;7.760;2022-11-15T01:41:27;11.13;;;7.03;;
30020;SDS011;16861;52.294;7.760;2022-11-15T01:44:44;10.52;;;8.02;;
30020;SDS011;16861;52.294;7.760;2022-11-15T01:47:03;9.98;;;7.47;;
30020;SDS011;16861;52.294;7.760;2022-11-15T01:49:35;9.13;;;7.18;;
30020;SDS011;16861;52.294;7.760;2022-11-15T01:52:06;9.32;;;6.93;;
30020;SDS011;16861;52.294;7.760;2022-11-15T01:54:36;9.15;;;7.00;;
30020;SDS011;16861;52.294;7.760;2022-11-15T01:57:04;8.85;;;6.90;;
30020;SDS011;16861;52.294;7.760;2022-11-15T01:59:36;9.35;;;7.32;;
30020;SDS011;16861;52.294;7.760;2022-11-15T02:02:06;9.43;;;7.40;;
30020;SDS011;16861;52.294;7.760;2022-11-15T02:04:38;7.78;;;6.18;;
30020;SDS011;16861;52.294;7.760;2022-11-15T02:07:08;11.15;;;7.13;;
30020;SDS011;16861;52.294;7.760;2022-11-15T02:09:37;9.07;;;6.80;;
30020;SDS011;16861;52.294;7.760;2022-11-15T02:12:05;12.10;;;6.82;;
30020;SDS011;16861;52.294;7.760;2022-11-15T02:14:34;8.18;;;6.03;;
30020;SDS011;16861;52.294;7.760;2022-11-15T02:27:50;9.70;;;6.82;;
30020;SDS011;16861;52.294;7.760;2022-11-15T02:41:57;8.10;;;6.00;;
30020;SDS011;16861;52.294;7.760;2022-11-15T02:44:33;8.88;;;6.18;;
30020;SDS011;16861;52.294;7.760;2022-11-15T02:47:08;11.93;;;6.20;;
30020;SDS011;16861;52.294;7.760;2022-11-15T02:49:41;9.68;;;6.07;;
30020;SDS011;16861;52.294;7.760;2022-11-15T02:52:14;10.98;;;6.28;;
30020;SDS011;16861;52.294;7.760;2022-11-15T02:54:53;7.78;;;6.43;;
30020;SDS011;16861;52.294;7.760;2022-11-15T02:57:45;8.93;;;6.18;;
30020;SDS011;16861;52.294;7.760;2022-11-15T03:08:31;7.65;;;6.35;;
30020;SDS011;16861;52.294;7.760;2022-11-15T03:11:08;8.52;;;6.45;;
30020;SDS011;16861;52.294;7.760;2022-11-15T03:18:55;10.50;;;7.00;;
30020;SDS011;16861;52.294;7.760;2022-11-15T03:21:27;9.60;;;6.78;;
30020;SDS011;16861;52.294;7.760;2022-11-15T03:23:56;11.07;;;6.65;;
30020;SDS011;16861;52.294;7.760;2022-11-15T03:26:26;8.63;;;5.88;;
30020;SDS011;16861;52.294;7.760;2022-11-15T03:28:56;9.73;;;6.72;;
30020;SDS011;16861;52.294;7.760;2022-11-15T03:31:30;10.38;;;6.90;;
30020;SDS011;16861;52.294;7.760;2022-11-15T03:34:32;8.60;;;6.22;;
30020;SDS011;16861;52.294;7.760;2022-11-15T03:37:09;8.02;;;5.32;;
30020;SDS011;16861;52.294;7.760;2022-11-15T03:39:39;10.00;;;6.00;;
30020;SDS011;16861;52.294;7.760;2022-11-15T03:50:10;10.73;;;6.47;;
30020;SDS011;16861;52.294;7.760;2022-11-15T03:52:48;12.65;;;6.82;;
30020;SDS011;16861;52.294;7.760;2022-11-15T03:55:19;9.02;;;6.80;;
30020;SDS011;16861;52.294;7.760;2022-11-15T03:57:48;12.82;;;6.50;;
30020;SDS011;16861;52.294;7.760;2022-11-15T04:00:17;12.90;;;6.78;;
30020;SDS011;16861;52.294;7.760;2022-11-15T04:05:19;9.60;;;7.05;;
30020;SDS011;16861;52.294;7.760;2022-11-15T04:07:46;9.43;;;6.47;;
30020;SDS011;16861;52.294;7.760;2022-11-15T04:10:12;9.52;;;6.55;;
30020;SDS011;16861;52.294;7.760;2022-11-15T04:12:40;11.02;;;6.85;;
30020;SDS011;16861;52.294;7.760;2022-11-15T04:15:10;7.07;;;5.97;;
30020;SDS011;16861;52.294;7.760;2022-11-15T04:18:15;9.85;;;6.88;;
30020;SDS011;16861;52.294;7.760;2022-11-15T04:20:34;9.45;;;6.07;;
30020;SDS011;16861;52.294;7.760;2022-11-15T04:23:20;8.20;;;6.70;;
30020;SDS011;16861;52.294;7.760;2022-11-15T04:28:34;11.25;;;6.53;;
30020;SDS011;16861;52.294;7.760;2022-11-15T04:31:00;9.48;;;6.28;;
30020;SDS011;16861;52.294;7.760;2022-11-15T04:33:27;9.98;;;6.88;;
30020;SDS011;16861;52.294;7.760;2022-11-15T04:35:54;10.52;;;6.70;;
30020;SDS011;16861;52.294;7.760;2022-11-15T04:38:39;9.95;;;6.97;;
30020;SDS011;16861;52.294;7.760;2022-11-15T04:41:05;8.60;;;6.47;;
30020;SDS011;16861;52.294;7.760;2022-11-15T04:43:32;7.50;;;6.38;;
30020;SDS011;16861;52.294;7.760;2022-11-15T04:45:59;12.77;;;6.95;;
30020;SDS011;16861;52.294;7.760;2022-11-15T04:48:26;9.77;;;6.82;;
30020;SDS011;16861;52.294;7.760;2022-11-15T04:50:52;9.02;;;6.75;;
30020;SDS011;16861;52.294;7.760;2022-11-15T04:53:19;9.25;;;6.38;;
30020;SDS011;16861;52.294;7.760;2022-11-15T04:55:45;10.57;;;6.97;;
30020;SDS011;16861;52.294;7.760;2022-11-15T04:58:13;10.77;;;6.68;;
30020;SDS011;16861;52.294;7.760;2022-11-15T05:00:39;10.05;;;6.25;;
30020;SDS011;16861;52.294;7.760;2022-11-15T05:03:06;9.30;;;6.70;;
30020;SDS011;16861;52.294;7.760;2022-11-15T05:05:53;8.00;;;6.18;;
30020;SDS011;16861;52.294;7.760;2022-11-15T05:08:20;9.02;;;6.13;;
30020;SDS011;16861;52.294;7.760;2022-11-15T05:10:47;7.95;;;6.30;;
30020;SDS011;16861;52.294;7.760;2022-11-15T05:13:13;8.45;;;5.97;;
30020;SDS011;16861;52.294;7.760;2022-11-15T05:15:40;8.68;;;6.05;;
30020;SDS011;16861;52.294;7.760;2022-11-15T05:18:06;6.97;;;6.00;;
30020;SDS011;16861;52.294;7.760;2022-11-15T05:20:33;10.10;;;6.03;;
30020;SDS011;16861;52.294;7.760;2022-11-15T05:22:59;10.93;;;6.50;;
30020;SDS011;16861;52.294;7.760;2022-11-15T05:25:26;6.75;;;5.88;;
30020;SDS011;16861;52.294;7.760;2022-11-15T05:27:53;9.35;;;6.93;;
30020;SDS011;16861;52.294;7.760;2022-11-15T05:30:19;9.55;;;6.22;;
30020;SDS011;16861;52.294;7.760;2022-11-15T05:32:46;7.65;;;6.20;;
30020;SDS011;16861;52.294;7.760;2022-11-15T05:35:31;11.43;;;5.93;;
30020;SDS011;16861;52.294;7.760;2022-11-15T05:38:07;9.95;;;6.15;;
30020;SDS011;16861;52.294;7.760;2022-11-15T05:40:34;8.35;;;6.47;;
30020;SDS011;16861;52.294;7.760;2022-11-15T05:43:01;8.73;;;6.00;;
30020;SDS011;16861;52.294;7.760;2022-11-15T05:45:31;7.72;;;5.90;;
30020;SDS011;16861;52.294;7.760;2022-11-15T05:48:00;8.50;;;5.80;;
30020;SDS011;16861;52.294;7.760;2022-11-15T05:50:30;8.30;;;6.35;;
30020;SDS011;16861;52.294;7.760;2022-11-15T05:52:57;6.35;;;5.57;;
30020;SDS011;16861;52.294;7.760;2022-11-15T05:55:30;6.53;;;5.32;;
30020;SDS011;16861;52.294;7.760;2022-11-15T05:57:57;9.63;;;5.93;;
30020;SDS011;16861;52.294;7.760;2022-11-15T06:00:24;7.47;;;6.18;;
30020;SDS011;16861;52.294;7.760;2022-11-15T06:02:51;8.60;;;5.53;;
30020;SDS011;16861;52.294;7.760;2022-11-15T06:05:17;8.70;;;5.55;;
30020;SDS011;16861;52.294;7.760;2022-11-15T06:07:44;11.30;;;5.90;;
30020;SDS011;16861;52.294;7.760;2022-11-15T06:10:10;9.40;;;6.13;;
30020;SDS011;16861;52.294;7.760;2022-11-15T06:12:37;5.97;;;5.20;;
30020;SDS011;16861;52.294;7.760;2022-11-15T06:15:03;8.52;;;5.60;;
30020;SDS011;16861;52.294;7.760;2022-11-15T06:17:30;7.72;;;5.63;;
30020;SDS011;16861;52.294;7.760;2022-11-15T06:19:57;7.35;;;5.75;;
30020;SDS011;16861;52.294;7.760;2022-11-15T06:22:23;8.00;;;5.47;;
30020;SDS011;16861;52.294;7.760;2022-11-15T06:24:50;9.70;;;5.80;;
30020;SDS011;16861;52.294;7.760;2022-11-15T06:27:16;6.95;;;5.57;;
30020;SDS011;16861;52.294;7.760;2022-11-15T06:29:43;7.13;;;4.90;;
30020;SDS011;16861;52.294;7.760;2022-11-15T06:32:10;7.55;;;5.60;;
30020;SDS011;16861;52.294;7.760;2022-11-15T06:34:36;6.72;;;5.03;;
30020;SDS011;16861;52.294;7.760;2022-11-15T06:37:03;7.32;;;5.18;;
30020;SDS011;16861;52.294;7.760;2022-11-15T06:39:29;14.85;;;5.80;;
30020;SDS011;16861;52.294;7.760;2022-11-15T06:41:56;6.15;;;5.10;;
30020;SDS011;16861;52.294;7.760;2022-11-15T06:44:22;5.95;;;5.10;;
30020;SDS011;16861;52.294;7.760;2022-11-15T06:46:49;9.82;;;5.40;;
30020;SDS011;16861;52.294;7.760;2022-11-15T06:49:15;8.18;;;5.10;;
30020;SDS011;16861;52.294;7.760;2022-11-15T06:51:43;8.07;;;5.40;;
30020;SDS011;16861;52.294;7.760;2022-11-15T06:54:09;7.75;;;5.38;;
30020;SDS011;16861;52.294;7.760;2022-11-15T06:56:36;7.93;;;5.22;;
30020;SDS011;16861;52.294;7.760;2022-11-15T06:59:02;6.95;;;5.25;;
30020;SDS011;16861;52.294;7.760;2022-11-15T07:01:29;7.80;;;5.43;;
30020;SDS011;16861;52.294;7.760;2022-11-15T07:03:55;9.02;;;5.32;;
30020;SDS011;16861;52.294;7.760;2022-11-15T07:06:22;6.03;;;4.75;;
30020;SDS011;16861;52.294;7.760;2022-11-15T07:08:49;7.88;;;5.32;;
30020;SDS011;16861;52.294;7.760;2022-11-15T07:11:15;5.80;;;4.80;;
30020;SDS011;16861;52.294;7.760;2022-11-15T07:13:42;7.13;;;5.82;;
30020;SDS011;16861;52.294;7.760;2022-11-15T07:16:09;7.60;;;5.75;;
30020;SDS011;16861;52.294;7.760;2022-11-15T07:18:39;9.93;;;5.47;;
30020;SDS011;16861;52.294;7.760;2022-11-15T07:21:08;6.35;;;5.45;;
30020;SDS011;16861;52.294;7.760;2022-11-15T07:23:36;6.70;;;5.35;;
30020;SDS011;16861;52.294;7.760;2022-11-15T07:26:04;10.40;;;5.75;;
30020;SDS011;16861;52.294;7.760;2022-11-15T07:28:31;7.65;;;5.75;;
30020;SDS011;16861;52.294;7.760;2022-11-15T07:30:58;8.15;;;5.60;;
30020;SDS011;16861;52.294;7.760;2022-11-15T07:33:28;8.38;;;5.53;;
30020;SDS011;16861;52.294;7.760;2022-11-15T07:35:58;6.65;;;5.38;;
30020;SDS011;16861;52.294;7.760;2022-11-15T07:38:27;7.13;;;5.32;;
30020;SDS011;16861;52.294;7.760;2022-11-15T07:40:55;7.80;;;5.22;;
30020;SDS011;16861;52.294;7.760;2022-11-15T07:43:26;7.70;;;5.80;;
30020;SDS011;16861;52.294;7.760;2022-11-15T07:45:56;7.25;;;5.63;;
30020;SDS011;16861;52.294;7.760;2022-11-15T07:48:25;7.63;;;5.80;;
30020;SDS011;16861;52.294;7.760;2022-11-15T07:51:10;6.90;;;5.88;;
30020;SDS011;16861;52.294;7.760;2022-11-15T07:56:08;4.90;;;4.43;;
30020;SDS011;16861;52.294;7.760;2022-11-15T07:58:35;7.95;;;5.00;;
30020;SDS011;16861;52.294;7.760;2022-11-15T08:01:05;8.95;;;5.90;;
30020;SDS011;16861;52.294;7.760;2022-11-15T08:03:34;5.97;;;5.15;;
30020;SDS011;16861;52.294;7.760;2022-11-15T08:06:01;6.97;;;5.63;;
30020;SDS011;16861;52.294;7.760;2022-11-15T08:08:28;6.65;;;5.20;;
30020;SDS011;16861;52.294;7.760;2022-11-15T08:10:57;7.35;;;5.75;;
30020;SDS011;16861;52.294;7.760;2022-11-15T08:13:24;6.25;;;5.13;;
30020;SDS011;16861;52.294;7.760;2022-11-15T08:15:50;6.03;;;5.40;;
30020;SDS011;16861;52.294;7.760;2022-11-15T08:18:22;8.17;;;6.00;;
30020;SDS011;16861;52.294;7.760;2022-11-15T08:20:49;8.30;;;5.18;;
30020;SDS011;16861;52.294;7.760;2022-11-15T08:23:16;5.97;;;5.38;;
30020;SDS011;16861;52.294;7.760;2022-11-15T08:25:42;6.85;;;5.68;;
30020;SDS011;16861;52.294;7.760;2022-11-15T08:28:10;6.13;;;5.47;;
30020;SDS011;16861;52.294;7.760;2022-11-15T08:30:37;8.00;;;5.20;;
30020;SDS011;16861;52.294;7.760;2022-11-15T08:33:10;8.20;;;5.38;;
30020;SDS011;16861;52.294;7.760;2022-11-15T08:35:38;8.82;;;5.82;;
30020;SDS011;16861;52.294;7.760;2022-11-15T08:38:06;6.65;;;5.38;;
30020;SDS011;16861;52.294;7.760;2022-11-15T08:40:32;6.93;;;5.57;;
30020;SDS011;16861;52.294;7.760;2022-11-15T08:42:59;6.90;;;5.25;;
30020;SDS011;16861;52.294;7.760;2022-11-15T08:45:29;7.50;;;4.88;;
30020;SDS011;16861;52.294;7.760;2022-11-15T08:47:56;7.03;;;5.22;;
30020;SDS011;16861;52.294;7.760;2022-11-15T08:50:23;5.95;;;4.70;;
30020;SDS011;16861;52.294;7.760;2022-11-15T08:52:49;7.85;;;5.53;;
30020;SDS011;16861;52.294;7.760;2022-11-15T08:55:16;5.78;;;4.55;;
30020;SDS011;16861;52.294;7.760;2022-11-15T08:57:43;5.50;;;4.85;;
30020;SDS011;16861;52.294;7.760;2022-11-15T09:00:10;7.43;;;4.97;;
30020;SDS011;16861;52.294;7.760;2022-11-15T09:02:41;6.05;;;5.10;;
30020;SDS011;16861;52.294;7.760;2022-11-15T09:05:08;5.97;;;4.68;;
30020;SDS011;16861;52.294;7.760;2022-11-15T09:07:34;5.30;;;4.80;;
30020;SDS011;16861;52.294;7.760;2022-11-15T09:10:02;5.65;;;4.78;;
30020;SDS011;16861;52.294;7.760;2022-11-15T09:12:29;6.50;;;4.63;;
30020;SDS011;16861;52.294;7.760;2022-11-15T09:14:55;5.53;;;4.90;;
30020;SDS011;16861;52.294;7.760;2022-11-15T09:17:22;5.50;;;4.72;;
30020;SDS011;16861;52.294;7.760;2022-11-15T09:19:50;6.75;;;4.65;;
30020;SDS011;16861;52.294;7.760;2022-11-15T09:22:17;6.07;;;4.55;;
30020;SDS011;16861;52.294;7.760;2022-11-15T09:24:44;5.10;;;4.60;;
30020;SDS011;16861;52.294;7.760;2022-11-15T09:27:11;6.10;;;4.50;;
30020;SDS011;16861;52.294;7.760;2022-11-15T09:29:38;4.35;;;3.90;;
30020;SDS011;16861;52.294;7.760;2022-11-15T09:32:05;5.05;;;4.55;;
30020;SDS011;16861;52.294;7.760;2022-11-15T09:34:32;7.15;;;4.43;;
30020;SDS011;16861;52.294;7.760;2022-11-15T09:36:58;5.97;;;4.30;;
30020;SDS011;16861;52.294;7.760;2022-11-15T09:39:25;6.47;;;4.28;;
30020;SDS011;16861;52.294;7.760;2022-11-15T09:44:41;5.25;;;3.95;;
30020;SDS011;16861;52.294;7.760;2022-11-15T09:53:02;4.10;;;3.70;;
30020;SDS011;16861;52.294;7.760;2022-11-15T09:55:36;3.28;;;2.97;;
30020;SDS011;16861;52.294;7.760;2022-11-15T09:58:28;3.78;;;3.45;;
30020;SDS011;16861;52.294;7.760;2022-11-15T10:01:08;3.70;;;3.22;;
30020;SDS011;16861;52.294;7.760;2022-11-15T10:03:43;3.80;;;3.20;;
30020;SDS011;16861;52.294;7.760;2022-11-15T10:06:46;3.50;;;3.08;;
30020;SDS011;16861;52.294;7.760;2022-11-15T10:09:12;3.30;;;2.72;;
30020;SDS011;16861;52.294;7.760;2022-11-15T10:11:39;5.43;;;2.85;;
30020;SDS011;16861;52.294;7.760;2022-11-15T10:24:45;2.80;;;1.80;;
30020;SDS011;16861;52.294;7.760;2022-11-15T10:27:13;3.08;;;1.92;;
30020;SDS011;16861;52.294;7.760;2022-11-15T10:29:43;2.30;;;1.80;;
30020;SDS011;16861;52.294;7.760;2022-11-15T10:32:12;1.80;;;1.45;;
30020;SDS011;16861;52.294;7.760;2022-11-15T10:34:40;3.63;;;2.00;;
30020;SDS011;16861;52.294;7.760;2022-11-15T10:37:07;3.17;;;1.85;;
30020;SDS011;16861;52.294;7.760;2022-11-15T10:39:33;1.70;;;1.60;;
30020;SDS011;16861;52.294;7.760;2022-11-15T10:42:16;2.88;;;1.98;;
30020;SDS011;16861;52.294;7.760;2022-11-15T10:44:51;1.98;;;1.48;;
30020;SDS011;16861;52.294;7.760;2022-11-15T10:50:05;3.67;;;1.70;;
30020;SDS011;16861;52.294;7.760;2022-11-15T10:52:51;2.55;;;1.60;;
30020;SDS011;16861;52.294;7.760;2022-11-15T10:55:22;1.83;;;1.65;;
30020;SDS011;16861;52.294;7.760;2022-11-15T10:57:53;2.00;;;1.60;;
30020;SDS011;16861;52.294;7.760;2022-11-15T11:00:29;2.10;;;1.73;;
30020;SDS011;16861;52.294;7.760;2022-11-15T11:03:00;2.03;;;1.77;;
30020;SDS011;16861;52.294;7.760;2022-11-15T11:10:37;2.28;;;1.90;;
30020;SDS011;16861;52.294;7.760;2022-11-15T11:13:25;2.08;;;1.50;;
30020;SDS011;16861;52.294;7.760;2022-11-15T11:21:20;1.38;;;1.27;;
30020;SDS011;16861;52.294;7.760;2022-11-15T11:24:23;3.07;;;1.80;;
30020;SDS011;16861;52.294;7.760;2022-11-15T11:34:37;3.28;;;1.77;;
30020;SDS011;16861;52.294;7.760;2022-11-15T11:37:29;1.60;;;1.40;;
30020;SDS011;16861;52.294;7.760;2022-11-15T11:48:13;1.52;;;1.17;;
30020;SDS011;16861;52.294;7.760;2022-11-15T11:50:44;2.05;;;1.00;;
30020;SDS011;16861;52.294;7.760;2022-11-15T11:53:13;2.85;;;1.05;;
30020;SDS011;16861;52.294;7.760;2022-11-15T11:55:47;1.80;;;1.10;;
30020;SDS011;16861;52.294;7.760;2022-11-15T11:58:24;2.70;;;0.80;;
30020;SDS011;16861;52.294;7.760;2022-11-15T12:01:22;2.88;;;0.65;;
30020;SDS011;16861;52.294;7.760;2022-11-15T12:06:36;2.10;;;0.93;;
30020;SDS011;16861;52.294;7.760;2022-11-15T12:09:51;1.60;;;0.90;;
30020;SDS011;16861;52.294;7.760;2022-11-15T12:12:09;1.02;;;0.90;;
30020;SDS011;16861;52.294;7.760;2022-11-15T12:17:24;1.67;;;1.00;;
30020;SDS011;16861;52.294;7.760;2022-11-15T12:19:56;1.25;;;0.98;;
30020;SDS011;16861;52.294;7.760;2022-11-15T12:22:27;2.38;;;0.88;;
30020;SDS011;16861;52.294;7.760;2022-11-15T12:24:57;1.10;;;0.85;;
30020;SDS011;16861;52.294;7.760;2022-11-15T12:27:36;1.38;;;0.85;;
30020;SDS011;16861;52.294;7.760;2022-11-15T12:30:17;2.20;;;0.60;;
30020;SDS011;16861;52.294;7.760;2022-11-15T12:32:50;1.80;;;1.02;;
30020;SDS011;16861;52.294;7.760;2022-11-15T12:35:42;2.25;;;0.90;;
30020;SDS011;16861;52.294;7.760;2022-11-15T12:38:12;0.63;;;0.60;;
30020;SDS011;16861;52.294;7.760;2022-11-15T12:41:17;1.08;;;0.88;;
30020;SDS011;16861;52.294;7.760;2022-11-15T12:43:46;2.80;;;0.90;;
30020;SDS011;16861;52.294;7.760;2022-11-15T12:49:02;2.13;;;0.90;;
30020;SDS011;16861;52.294;7.760;2022-11-15T12:57:50;1.08;;;0.70;;
30020;SDS011;16861;52.294;7.760;2022-11-15T13:02:38;0.95;;;0.70;;
30020;SDS011;16861;52.294;7.760;2022-11-15T13:21:01;0.98;;;0.70;;
30020;SDS011;16861;52.294;7.760;2022-11-15T13:23:55;1.80;;;0.75;;
30020;SDS011;16861;52.294;7.760;2022-11-15T13:26:22;1.83;;;0.90;;
30020;SDS011;16861;52.294;7.760;2022-11-15T13:28:49;0.93;;;0.73;;
30020;SDS011;16861;52.294;7.760;2022-11-15T13:31:22;1.33;;;0.90;;
30020;SDS011;16861;52.294;7.760;2022-11-15T13:34:14;3.85;;;1.05;;
30020;SDS011;16861;52.294;7.760;2022-11-15T13:39:45;1.38;;;0.90;;
30020;SDS011;16861;52.294;7.760;2022-11-15T13:42:17;1.15;;;0.75;;
30020;SDS011;16861;52.294;7.760;2022-11-15T13:44:58;0.70;;;0.70;;
30020;SDS011;16861;52.294;7.760;2022-11-15T13:47:27;1.30;;;0.90;;
30020;SDS011;16861;52.294;7.760;2022-11-15T13:49:58;1.75;;;0.75;;
30020;SDS011;16861;52.294;7.760;2022-11-15T13:52:28;1.25;;;0.73;;
30020;SDS011;16861;52.294;7.760;2022-11-15T13:55:01;1.63;;;0.65;;
30020;SDS011;16861;52.294;7.760;2022-11-15T13:57:37;0.60;;;0.60;;
30020;SDS011;16861;52.294;7.760;2022-11-15T14:00:06;1.20;;;0.73;;
30020;SDS011;16861;52.294;7.760;2022-11-15T14:05:16;0.70;;;0.68;;
30020;SDS011;16861;52.294;7.760;2022-11-15T14:07:55;1.88;;;0.80;;
30020;SDS011;16861;52.294;7.760;2022-11-15T14:10:34;1.38;;;0.90;;
30020;SDS011;16861;52.294;7.760;2022-11-15T14:13:03;1.20;;;0.90;;
30020;SDS011;16861;52.294;7.760;2022-11-15T14:15:37;0.93;;;0.80;;
30020;SDS011;16861;52.294;7.760;2022-11-15T14:18:05;1.63;;;0.95;;
30020;SDS011;16861;52.294;7.760;2022-11-15T14:20:34;3.97;;;1.20;;
30020;SDS011;16861;52.294;7.760;2022-11-15T14:23:03;4.40;;;1.10;;
30020;SDS011;16861;52.294;7.760;2022-11-15T14:30:34;1.52;;;0.80;;
30020;SDS011;16861;52.294;7.760;2022-11-15T14:33:00;3.40;;;0.90;;
30020;SDS011;16861;52.294;7.760;2022-11-15T14:35:27;1.02;;;0.90;;
30020;SDS011;16861;52.294;7.760;2022-11-15T14:37:53;2.67;;;0.73;;
30020;SDS011;16861;52.294;7.760;2022-11-15T14:40:20;2.97;;;1.02;;
30020;SDS011;16861;52.294;7.760;2022-11-15T14:42:48;4.13;;;0.85;;
30020;SDS011;16861;52.294;7.760;2022-11-15T14:45:19;0.90;;;0.80;;
30020;SDS011;16861;52.294;7.760;2022-11-15T14:47:47;1.70;;;0.73;;
30020;SDS011;16861;52.294;7.760;2022-11-15T14:50:15;2.80;;;1.00;;
30020;SDS011;16861;52.294;7.760;2022-11-15T14:52:44;3.45;;;1.10;;
30020;SDS011;16861;52.294;7.760;2022-11-15T14:55:24;1.85;;;1.08;;
30020;SDS011;16861;52.294;7.760;2022-11-15T14:57:54;2.50;;;0.90;;
30020;SDS011;16861;52.294;7.760;2022-11-15T15:00:21;1.92;;;0.90;;
30020;SDS011;16861;52.294;7.760;2022-11-15T15:02:48;1.83;;;1.02;;
30020;SDS011;16861;52.294;7.760;2022-11-15T15:05:19;1.50;;;0.93;;
30020;SDS011;16861;52.294;7.760;2022-11-15T15:07:47;1.50;;;1.00;;
30020;SDS011;16861;52.294;7.760;2022-11-15T15:10:14;2.60;;;1.20;;
30020;SDS011;16861;52.294;7.760;2022-11-15T15:13:03;2.47;;;1.30;;
30020;SDS011;16861;52.294;7.760;2022-11-15T15:15:32;4.18;;;1.23;;
30020;SDS011;16861;52.294;7.760;2022-11-15T15:18:01;1.95;;;1.20;;
30020;SDS011;16861;52.294;7.760;2022-11-15T15:20:28;1.38;;;1.00;;
30020;SDS011;16861;52.294;7.760;2022-11-15T15:22:55;2.65;;;1.50;;
30020;SDS011;16861;52.294;7.760;2022-11-15T15:27:56;3.17;;;2.10;;
30020;SDS011;16861;52.294;7.760;2022-11-15T15:30:23;2.80;;;2.10;;
30020;SDS011;16861;52.294;7.760;2022-11-15T15:32:50;5.13;;;2.45;;
30020;SDS011;16861;52.294;7.760;2022-11-15T15:35:17;3.38;;;2.30;;
30020;SDS011;16861;52.294;7.760;2022-11-15T15:37:45;3.53;;;1.58;;
30020;SDS011;16861;52.294;7.760;2022-11-15T15:40:14;2.47;;;1.83;;
30020;SDS011;16861;52.294;7.760;2022-11-15T15:42:46;4.90;;;1.30;;
30020;SDS011;16861;52.294;7.760;2022-11-15T15:45:13;1.52;;;1.13;;
30020;SDS011;16861;52.294;7.760;2022-11-15T15:47:41;1.83;;;1.02;;
30020;SDS011;16861;52.294;7.760;2022-11-15T15:50:24;6.30;;;1.45;;
30020;SDS011;16861;52.294;7.760;2022-11-15T15:52:59;4.50;;;1.20;;
30020;SDS011;16861;52.294;7.760;2022-11-15T15:55:29;2.10;;;1.30;;
30020;SDS011;16861;52.294;7.760;2022-11-15T15:57:56;1.55;;;1.05;;
30020;SDS011;16861;52.294;7.760;2022-11-15T16:00:24;3.42;;;1.10;;
30020;SDS011;16861;52.294;7.760;2022-11-15T16:02:51;3.00;;;1.35;;
30020;SDS011;16861;52.294;7.760;2022-11-15T16:05:19;2.83;;;0.82;;
30020;SDS011;16861;52.294;7.760;2022-11-15T16:07:45;2.88;;;1.10;;
30020;SDS011;16861;52.294;7.760;2022-11-15T16:10:21;1.58;;;1.08;;
30020;SDS011;16861;52.294;7.760;2022-11-15T16:12:51;2.80;;;1.08;;
30020;SDS011;16861;52.294;7.760;2022-11-15T16:18:57;1.67;;;0.90;;
30020;SDS011;16861;52.294;7.760;2022-11-15T16:21:24;2.63;;;1.15;;
30020;SDS011;16861;52.294;7.760;2022-11-15T16:23:51;2.50;;;1.00;;
30020;SDS011;16861;52.294;7.760;2022-11-15T16:26:25;1.73;;;1.13;;
30020;SDS011;16861;52.294;7.760;2022-11-15T16:28:53;2.45;;;1.17;;
30020;SDS011;16861;52.294;7.760;2022-11-15T16:31:20;1.52;;;1.13;;
30020;SDS011;16861;52.294;7.760;2022-11-15T16:33:49;1.67;;;1.10;;
30020;SDS011;16861;52.294;7.760;2022-11-15T16:38:55;3.58;;;1.38;;
30020;SDS011;16861;52.294;7.760;2022-11-15T16:41:22;3.65;;;1.23;;
30020;SDS011;16861;52.294;7.760;2022-11-15T16:43:49;1.98;;;1.20;;
30020;SDS011;16861;52.294;7.760;2022-11-15T16:46:20;1.42;;;1.10;;
30020;SDS011;16861;52.294;7.760;2022-11-15T16:48:48;2.53;;;1.55;;
30020;SDS011;16861;52.294;7.760;2022-11-15T16:51:15;1.73;;;1.30;;
30020;SDS011;16861;52.294;7.760;2022-11-15T16:53:42;2.65;;;1.23;;
30020;SDS011;16861;52.294;7.760;2022-11-15T16:56:28;1.90;;;1.20;;
30020;SDS011;16861;52.294;7.760;2022-11-15T16:58:56;2.22;;;1.15;;
30020;SDS011;16861;52.294;7.760;2022-11-15T17:01:25;3.95;;;1.23;;
30020;SDS011;16861;52.294;7.760;2022-11-15T17:04:02;1.80;;;1.20;;
30020;SDS011;16861;52.294;7.760;2022-11-15T17:06:39;2.38;;;1.02;;
30020;SDS011;16861;52.294;7.760;2022-11-15T17:09:09;1.25;;;1.00;;
30020;SDS011;16861;52.294;7.760;2022-11-15T17:11:38;2.05;;;1.15;;
30020;SDS011;16861;52.294;7.760;2022-11-15T17:14:06;1.50;;;1.40;;
30020;SDS011;16861;52.294;7.760;2022-11-15T17:16:39;3.22;;;1.33;;
30020;SDS011;16861;52.294;7.760;2022-11-15T17:19:11;3.70;;;1.25;;
30020;SDS011;16861;52.294;7.760;2022-11-15T17:21:39;3.05;;;1.35;;
30020;SDS011;16861;52.294;7.760;2022-11-15T17:24:08;3.70;;;1.13;;
30020;SDS011;16861;52.294;7.760;2022-11-15T17:26:36;5.97;;;1.90;;
30020;SDS011;16861;52.294;7.760;2022-11-15T17:29:06;1.70;;;1.27;;
30020;SDS011;16861;52.294;7.760;2022-11-15T17:31:35;3.50;;;1.80;;
30020;SDS011;16861;52.294;7.760;2022-11-15T17:34:03;3.10;;;1.60;;
30020;SDS011;16861;52.294;7.760;2022-11-15T17:36:30;4.32;;;1.55;;